createdAt,value
2018-08-25T00:01:58.331Z,14.80
2018-08-25T00:04:27.724Z,14.90
2018-08-25T00:06:57.967Z,14.90
2018-08-25T00:09:29.966Z,14.90
2018-08-25T00:11:59.601Z,14.90
2018-08-25T00:14:29.171Z,14.90
2018-08-25T00:16:58.659Z,14.90
2018-08-25T00:19:28.233Z,15.00
2018-08-25T00:21:58.396Z,15.00
2018-08-25T00:24:27.975Z,15.00
2018-08-25T00:26:57.983Z,14.90
2018-08-25T00:29:27.602Z,14.80
2018-08-25T00:31:58.142Z,14.90
2018-08-25T00:34:27.703Z,14.80
2018-08-25T00:36:58.167Z,14.70
2018-08-25T00:39:27.723Z,14.70
2018-08-25T00:41:58.018Z,14.70
2018-08-25T00:44:27.500Z,14.80
2018-08-25T00:46:57.940Z,14.80
2018-08-25T00:49:27.390Z,14.80
2018-08-25T00:51:56.783Z,14.80
2018-08-25T00:54:26.362Z,14.80
2018-08-25T00:56:55.971Z,14.80
2018-08-25T00:59:25.583Z,14.80
2018-08-25T01:01:55.436Z,14.70
2018-08-25T01:04:26.040Z,14.70
2018-08-25T01:06:55.626Z,14.70
2018-08-25T01:09:25.213Z,14.70
2018-08-25T01:11:54.946Z,14.70
2018-08-25T01:14:24.439Z,14.70
2018-08-25T01:16:53.867Z,14.70
2018-08-25T01:19:23.460Z,14.70
2018-08-25T01:21:53.026Z,14.60
2018-08-25T01:24:22.659Z,14.50
2018-08-25T01:26:52.218Z,14.60
2018-08-25T01:29:21.675Z,14.50
2018-08-25T01:31:51.294Z,14.60
2018-08-25T01:34:20.967Z,14.50
2018-08-25T01:36:50.435Z,14.60
2018-08-25T01:39:19.922Z,14.60
2018-08-25T01:41:49.414Z,14.60
2018-08-25T01:44:18.967Z,14.50
2018-08-25T01:46:48.436Z,14.50
2018-08-25T01:49:17.895Z,14.40
2018-08-25T01:51:47.452Z,14.50
2018-08-25T01:54:17.018Z,14.50
2018-08-25T01:58:34.721Z,14.50
2018-08-25T02:01:04.271Z,14.50
2018-08-25T02:03:33.813Z,14.50
2018-08-25T02:06:03.283Z,14.50
2018-08-25T02:08:32.731Z,14.50
2018-08-25T02:11:02.127Z,14.50
2018-08-25T02:13:31.880Z,14.50
2018-08-25T02:16:01.435Z,14.50
2018-08-25T02:18:31.104Z,14.50
2018-08-25T02:25:55.758Z,14.40
2018-08-25T02:28:25.333Z,14.30
2018-08-25T02:30:54.822Z,14.30
2018-08-25T02:33:24.373Z,14.30
2018-08-25T02:35:54.015Z,14.30
2018-08-25T02:38:23.543Z,14.30
2018-08-25T02:40:53.114Z,14.30
2018-08-25T02:43:22.642Z,14.20
2018-08-25T02:45:52.223Z,14.20
2018-08-25T02:48:21.918Z,14.20
2018-08-25T02:50:51.535Z,14.20
2018-08-25T02:53:21.095Z,14.20
2018-08-25T02:55:50.683Z,14.30
2018-08-25T02:58:20.323Z,14.30
2018-08-25T03:00:49.803Z,14.20
2018-08-25T03:18:46.624Z,14.20
2018-08-25T03:21:16.240Z,14.10
2018-08-25T03:23:45.932Z,14.10
2018-08-25T03:26:15.475Z,14.00
2018-08-25T03:28:44.959Z,14.00
2018-08-25T03:31:14.315Z,14.00
2018-08-25T03:33:43.765Z,14.00
2018-08-25T03:36:13.174Z,14.00
2018-08-25T03:38:42.701Z,14.00
2018-08-25T03:41:12.275Z,14.00
2018-08-25T03:43:41.860Z,14.00
2018-08-25T03:46:11.414Z,14.00
2018-08-25T03:48:40.984Z,14.00
2018-08-25T03:51:10.530Z,14.10
2018-08-25T03:53:39.987Z,14.10
2018-08-25T03:56:09.446Z,14.10
2018-08-25T03:58:39.019Z,14.10
2018-08-25T04:01:08.380Z,14.10
2018-08-25T04:03:37.845Z,14.10
2018-08-25T04:06:07.424Z,14.10
2018-08-25T04:08:36.991Z,14.20
2018-08-25T04:11:06.468Z,14.20
2018-08-25T04:13:35.870Z,14.20
2018-08-25T04:16:05.474Z,14.20
2018-08-25T04:18:34.939Z,14.10
2018-08-25T04:21:04.389Z,14.20
2018-08-25T04:23:34.605Z,14.20
2018-08-25T04:26:04.166Z,14.20
2018-08-25T04:28:33.728Z,14.00
2018-08-25T04:31:03.108Z,14.00
2018-08-25T04:33:32.635Z,14.00
2018-08-25T04:40:58.122Z,13.90
2018-08-25T04:43:27.504Z,13.80
2018-08-25T04:45:57.016Z,13.70
2018-08-25T04:48:26.583Z,13.70
2018-08-25T04:50:56.171Z,13.80
2018-08-25T04:53:25.771Z,13.80
2018-08-25T04:55:55.237Z,13.90
2018-08-25T04:58:24.680Z,13.90
2018-08-25T05:00:54.266Z,14.00
2018-08-25T05:03:23.674Z,14.00
2018-08-25T05:05:53.044Z,14.00
2018-08-25T05:08:22.447Z,14.00
2018-08-25T05:10:51.818Z,14.10
2018-08-25T05:13:21.425Z,14.20
2018-08-25T05:15:50.869Z,14.20
2018-08-25T05:23:15.765Z,14.30
2018-08-25T05:25:45.407Z,14.30
2018-08-25T05:28:14.987Z,14.40
2018-08-25T05:30:44.546Z,14.40
2018-08-25T05:33:14.015Z,14.50
2018-08-25T05:35:43.539Z,14.60
2018-08-25T05:38:13.208Z,14.60
2018-08-25T05:40:42.614Z,14.60
2018-08-25T05:43:12.267Z,14.70
2018-08-25T05:45:41.951Z,14.80
2018-08-25T05:48:11.347Z,14.80
2018-08-25T05:50:40.887Z,14.80
2018-08-25T05:53:10.486Z,14.90
2018-08-25T05:55:39.931Z,14.90
2018-08-25T05:58:09.594Z,15.10
2018-08-25T06:00:39.236Z,15.20
2018-08-25T06:03:08.709Z,15.30
2018-08-25T06:05:38.219Z,15.40
2018-08-25T06:08:07.702Z,15.40
2018-08-25T06:10:37.088Z,15.50
2018-08-25T06:13:06.671Z,15.60
2018-08-25T06:15:36.035Z,15.90
2018-08-25T06:18:05.595Z,16.40
2018-08-25T06:20:35.104Z,17.30
2018-08-25T06:23:04.631Z,18.10
2018-08-25T06:25:34.163Z,18.80
2018-08-25T06:28:03.648Z,19.30
2018-08-25T06:30:33.041Z,19.60
2018-08-25T06:33:02.487Z,19.90
2018-08-25T06:35:31.875Z,20.20
2018-08-25T06:38:01.491Z,20.70
2018-08-25T06:40:31.184Z,21.30
2018-08-25T06:43:00.727Z,22.00
2018-08-25T06:45:30.165Z,22.70
2018-08-25T06:47:59.757Z,23.50
2018-08-25T06:50:29.315Z,24.40
2018-08-25T06:52:59.352Z,25.00
2018-08-25T06:55:28.745Z,25.50
2018-08-25T06:57:59.135Z,25.70
2018-08-25T07:00:28.782Z,25.60
2018-08-25T07:02:59.137Z,25.80
2018-08-25T07:05:28.490Z,26.00
2018-08-25T07:07:57.893Z,26.00
2018-08-25T07:10:27.466Z,25.80
2018-08-25T07:12:57.084Z,25.90
2018-08-25T07:15:26.403Z,25.80
2018-08-25T07:17:55.772Z,26.00
2018-08-25T07:20:25.185Z,26.30
2018-08-25T07:22:54.762Z,26.40
2018-08-25T07:25:24.355Z,26.10
2018-08-25T07:27:53.728Z,25.50
2018-08-25T07:30:23.443Z,25.30
2018-08-25T07:32:52.815Z,24.60
2018-08-25T07:40:17.684Z,23.80
2018-08-25T07:42:47.088Z,23.80
2018-08-25T07:45:16.636Z,23.80
2018-08-25T07:47:46.032Z,23.90
2018-08-25T07:50:15.763Z,24.00
2018-08-25T07:52:45.152Z,23.60
2018-08-25T07:55:14.648Z,22.90
2018-08-25T07:57:44.185Z,22.70
2018-08-25T08:00:13.798Z,22.30
2018-08-25T08:02:43.190Z,22.20
2018-08-25T08:05:12.623Z,22.10
2018-08-25T08:07:42.062Z,22.00
2018-08-25T08:10:12.590Z,21.90
2018-08-25T08:12:42.051Z,21.80
2018-08-25T08:15:11.471Z,21.70
2018-08-25T08:17:42.033Z,21.60
2018-08-25T08:20:11.775Z,21.20
2018-08-25T08:22:41.262Z,21.10
2018-08-25T08:25:10.676Z,20.80
2018-08-25T08:27:40.126Z,20.50
2018-08-25T08:30:09.648Z,20.30
2018-08-25T08:32:39.207Z,20.20
2018-08-25T08:35:09.075Z,20.00
2018-08-25T08:37:38.446Z,20.10
2018-08-25T08:40:08.024Z,20.30
2018-08-25T08:42:37.705Z,20.30
2018-08-25T08:45:07.466Z,20.10
2018-08-25T08:47:37.374Z,20.30
2018-08-25T08:50:08.425Z,20.10
2018-08-25T08:52:38.204Z,19.70
2018-08-25T08:55:08.028Z,19.50
2018-08-25T08:57:38.168Z,19.50
2018-08-25T09:00:07.776Z,19.30
2018-08-25T09:02:37.151Z,19.10
2018-08-25T09:05:07.020Z,19.10
2018-08-25T09:07:36.414Z,18.90
2018-08-25T09:10:06.115Z,18.80
2018-08-25T09:12:35.542Z,18.80
2018-08-25T09:15:05.053Z,18.80
2018-08-25T09:17:34.593Z,18.80
2018-08-25T09:20:04.112Z,18.80
2018-08-25T09:22:33.567Z,18.90
2018-08-25T09:25:03.159Z,18.90
2018-08-25T09:27:32.896Z,18.90
2018-08-25T09:30:02.471Z,19.10
2018-08-25T09:32:32.021Z,19.10
2018-08-25T09:35:01.450Z,18.90
2018-08-25T09:37:31.078Z,18.80
2018-08-25T09:40:00.619Z,18.90
2018-08-25T09:42:30.019Z,18.90
2018-08-25T09:45:00.067Z,18.90
2018-08-25T09:47:29.553Z,18.80
2018-08-25T09:49:59.910Z,18.80
2018-08-25T09:52:29.434Z,18.80
2018-08-25T09:54:59.877Z,18.70
2018-08-25T09:57:29.443Z,18.60
2018-08-25T09:59:59.993Z,18.60
2018-08-25T10:02:29.420Z,18.50
2018-08-25T10:04:59.859Z,18.40
2018-08-25T10:07:29.490Z,18.40
2018-08-25T10:09:59.951Z,18.40
2018-08-25T10:12:29.395Z,18.50
2018-08-25T10:14:59.760Z,18.30
2018-08-25T10:17:29.351Z,18.20
2018-08-25T10:19:59.748Z,18.30
2018-08-25T10:22:29.230Z,18.30
2018-08-25T10:24:59.660Z,18.30
2018-08-25T10:27:29.107Z,18.50
2018-08-25T10:29:58.554Z,18.40
2018-08-25T10:32:28.183Z,18.50
2018-08-25T10:34:57.782Z,18.40
2018-08-25T10:37:27.190Z,18.30
2018-08-25T10:39:56.838Z,18.20
2018-08-25T10:42:26.244Z,18.20
2018-08-25T10:44:55.851Z,18.20
2018-08-25T10:47:25.332Z,18.40
2018-08-25T10:49:54.791Z,18.50
2018-08-25T10:52:24.324Z,18.50
2018-08-25T10:54:53.739Z,18.50
2018-08-25T10:57:23.389Z,18.40
2018-08-25T10:59:52.949Z,18.30
2018-08-25T11:02:26.560Z,18.30
2018-08-25T11:04:55.994Z,18.50
2018-08-25T11:07:25.649Z,18.40
2018-08-25T11:09:55.145Z,18.40
2018-08-25T11:12:24.554Z,18.40
2018-08-25T11:14:54.003Z,18.40
2018-08-25T11:17:23.492Z,18.30
2018-08-25T11:19:52.923Z,18.20
2018-08-25T11:22:22.309Z,18.20
2018-08-25T11:24:51.766Z,18.30
2018-08-25T11:27:21.683Z,18.40
2018-08-25T11:29:51.621Z,18.30
2018-08-25T11:32:24.927Z,18.20
2018-08-25T11:34:54.348Z,18.10
2018-08-25T11:37:24.090Z,18.30
2018-08-25T11:39:53.539Z,18.50
2018-08-25T11:42:22.997Z,18.50
2018-08-25T11:44:52.451Z,18.50
2018-08-25T11:47:21.875Z,18.50
2018-08-25T11:49:51.466Z,18.30
2018-08-25T11:52:20.915Z,18.30
2018-08-25T11:54:50.478Z,18.40
2018-08-25T11:57:20.208Z,18.50
2018-08-25T11:59:49.634Z,18.50
2018-08-25T12:02:19.289Z,18.50
2018-08-25T12:04:48.619Z,18.30
2018-08-25T12:07:17.971Z,18.20
2018-08-25T12:09:47.566Z,18.30
2018-08-25T12:12:17.152Z,18.30
2018-08-25T12:14:46.617Z,18.40
2018-08-25T12:17:16.019Z,18.50
2018-08-25T12:19:45.647Z,18.60
2018-08-25T12:22:15.017Z,18.80
2018-08-25T12:24:44.468Z,18.80
2018-08-25T12:27:14.006Z,18.60
2018-08-25T12:29:43.413Z,18.50
2018-08-25T12:32:12.932Z,18.50
2018-08-25T12:34:42.556Z,18.60
2018-08-25T12:37:12.115Z,18.60
2018-08-25T12:39:41.528Z,18.60
2018-08-25T12:42:10.954Z,18.60
2018-08-25T12:44:40.403Z,18.60
2018-08-25T12:47:09.774Z,18.50
2018-08-25T12:51:40.423Z,18.50
2018-08-25T12:54:10.022Z,18.50
2018-08-25T12:56:39.462Z,18.40
2018-08-25T12:59:08.920Z,18.50
2018-08-25T13:01:38.363Z,18.50
2018-08-25T13:04:07.835Z,18.50
2018-08-25T13:06:37.452Z,18.60
2018-08-25T13:09:09.440Z,18.60
2018-08-25T13:11:41.108Z,18.40
2018-08-25T13:14:12.370Z,18.20
2018-08-25T13:16:41.815Z,18.10
2018-08-25T13:19:11.201Z,18.00
2018-08-25T13:21:40.751Z,18.10
2018-08-25T13:24:10.250Z,18.20
2018-08-25T13:26:39.638Z,18.30
2018-08-25T13:29:09.120Z,18.40
2018-08-25T13:31:38.682Z,18.20
2018-08-25T13:34:08.237Z,18.10
2018-08-25T13:36:37.839Z,18.00
2018-08-25T13:39:09.124Z,17.90
2018-08-25T13:41:39.299Z,17.80
2018-08-25T13:44:09.519Z,17.70
2018-08-25T13:46:38.867Z,17.70
2018-08-25T13:49:08.548Z,17.60
2018-08-25T13:51:38.071Z,17.30
2018-08-25T13:54:07.874Z,17.10
2018-08-25T13:56:37.346Z,16.90
2018-08-25T13:59:06.860Z,16.80
2018-08-25T14:01:36.358Z,16.60
2018-08-25T14:04:05.728Z,16.60
2018-08-25T14:06:35.162Z,16.60
2018-08-25T14:09:06.431Z,16.70
2018-08-25T14:11:35.851Z,16.80
2018-08-25T14:14:05.430Z,16.90
2018-08-25T14:16:34.784Z,17.00
2018-08-25T14:19:04.438Z,17.10
2018-08-25T14:21:33.794Z,17.30
2018-08-25T14:24:03.155Z,17.40
2018-08-25T14:26:32.507Z,17.40
2018-08-25T14:29:01.887Z,17.50
2018-08-25T14:31:31.410Z,17.60
2018-08-25T14:34:00.810Z,17.60
2018-08-25T14:36:30.405Z,17.80
2018-08-25T14:39:00.729Z,17.80
2018-08-25T14:41:30.127Z,17.80
2018-08-25T14:43:59.593Z,17.90
2018-08-25T14:46:28.987Z,17.90
2018-08-25T14:48:58.561Z,17.90
2018-08-25T14:51:27.963Z,17.90
2018-08-25T14:53:57.542Z,17.90
2018-08-25T14:56:27.299Z,17.90
2018-08-25T14:58:56.933Z,17.90
2018-08-25T15:01:26.610Z,17.90
2018-08-25T15:03:56.259Z,17.80
2018-08-25T15:06:25.694Z,17.70
2018-08-25T15:08:55.095Z,17.90
2018-08-25T15:11:24.495Z,18.10
2018-08-25T15:13:53.894Z,18.20
2018-08-25T15:16:23.258Z,18.20
2018-08-25T15:18:52.869Z,18.10
2018-08-25T15:21:22.334Z,18.00
2018-08-25T15:23:51.710Z,17.80
2018-08-25T15:26:23.619Z,17.80
2018-08-25T15:29:06.483Z,17.90
2018-08-25T15:34:32.598Z,17.90
2018-08-25T15:39:41.882Z,18.10
2018-08-25T15:42:25.083Z,18.10
2018-08-25T15:58:58.266Z,18.20
2018-08-25T16:01:37.044Z,18.20
2018-08-25T16:12:29.205Z,18.40
2018-08-25T16:20:22.938Z,18.40
2018-08-25T16:23:08.161Z,18.50
2018-08-25T16:25:37.570Z,18.50
2018-08-25T16:28:07.282Z,18.60
2018-08-25T16:30:36.637Z,18.70
2018-08-25T16:33:06.041Z,18.70
2018-08-25T16:35:35.363Z,18.80
2018-08-25T16:38:04.864Z,18.60
2018-08-25T16:40:34.424Z,18.40
2018-08-25T16:43:03.854Z,18.30
2018-08-25T16:45:33.215Z,18.10
2018-08-25T16:48:02.726Z,18.10
2018-08-25T16:50:32.079Z,18.00
2018-08-25T16:53:01.564Z,17.90
2018-08-25T16:55:32.345Z,17.90
2018-08-25T16:58:02.325Z,17.90
2018-08-25T17:00:31.853Z,17.80
2018-08-25T17:03:01.347Z,17.70
2018-08-25T17:05:30.708Z,17.60
2018-08-25T17:08:01.098Z,17.70
2018-08-25T17:10:30.579Z,17.70
2018-08-25T17:13:00.351Z,17.80
2018-08-25T17:15:29.687Z,17.80
2018-08-25T17:17:59.091Z,17.90
2018-08-25T17:20:28.552Z,17.80
2018-08-25T17:22:58.042Z,17.80
2018-08-25T17:25:27.532Z,17.90
2018-08-25T17:27:57.215Z,18.00
2018-08-25T17:30:26.736Z,17.90
2018-08-25T17:32:56.257Z,18.00
2018-08-25T17:35:25.904Z,18.00
2018-08-25T17:37:55.251Z,18.10
2018-08-25T17:40:24.711Z,18.10
2018-08-25T17:42:54.059Z,18.10
2018-08-25T17:45:23.377Z,18.10
2018-08-25T17:47:52.907Z,18.10
2018-08-25T17:50:22.363Z,18.10
2018-08-25T17:52:51.920Z,18.20
2018-08-25T17:55:21.418Z,18.20
2018-08-25T17:57:51.052Z,18.20
2018-08-25T18:00:20.570Z,18.20
2018-08-25T18:02:50.071Z,18.20
2018-08-25T18:05:19.609Z,18.20
2018-08-25T18:07:49.162Z,18.10
2018-08-25T18:10:18.860Z,18.10
2018-08-25T18:12:48.445Z,18.00
2018-08-25T18:15:17.935Z,18.00
2018-08-25T18:17:47.489Z,17.80
2018-08-25T18:20:16.926Z,17.60
2018-08-25T18:22:46.358Z,17.50
2018-08-25T18:25:15.750Z,17.50
2018-08-25T18:27:45.057Z,17.40
2018-08-25T18:30:15.502Z,17.40
2018-08-25T18:32:44.896Z,17.30
2018-08-25T18:35:14.366Z,17.30
2018-08-25T18:37:43.982Z,17.30
2018-08-25T18:40:14.491Z,17.20
2018-08-25T18:42:44.012Z,17.20
2018-08-25T18:45:13.410Z,17.20
2018-08-25T18:47:42.724Z,17.10
2018-08-25T18:50:12.203Z,17.10
2018-08-25T18:52:41.730Z,17.00
2018-08-25T18:55:11.180Z,17.00
2018-08-25T18:57:40.750Z,17.00
2018-08-25T19:00:10.187Z,16.90
2018-08-25T19:02:39.538Z,16.90
2018-08-25T19:05:09.078Z,16.80
2018-08-25T19:07:38.374Z,16.70
2018-08-25T19:10:07.815Z,16.70
2018-08-25T19:12:38.371Z,16.50
2018-08-25T19:15:07.799Z,16.40
2018-08-25T19:17:37.343Z,16.20
2018-08-25T19:20:06.789Z,16.10
2018-08-25T19:22:36.302Z,16.10
2018-08-25T19:25:05.948Z,16.10
2018-08-25T19:27:35.436Z,16.00
2018-08-25T19:30:05.019Z,16.00
2018-08-25T19:32:34.432Z,15.90
2018-08-25T19:35:03.881Z,15.90
2018-08-25T19:37:33.448Z,15.90
2018-08-25T19:40:02.880Z,15.90
2018-08-25T19:42:32.302Z,15.90
2018-08-25T19:45:01.709Z,15.90
2018-08-25T19:47:31.070Z,15.90
2018-08-25T19:50:01.547Z,15.90
2018-08-25T19:52:31.102Z,15.90
2018-08-25T19:55:00.550Z,15.80
2018-08-25T19:57:30.083Z,15.90
2018-08-25T19:59:59.410Z,15.90
2018-08-25T20:02:28.926Z,15.80
2018-08-25T20:04:58.352Z,15.80
2018-08-25T20:07:27.759Z,15.80
2018-08-25T20:09:57.213Z,15.80
2018-08-25T20:12:26.594Z,15.80
2018-08-25T20:14:56.106Z,15.80
2018-08-25T20:17:25.604Z,15.70
2018-08-25T20:19:55.074Z,15.70
2018-08-25T20:22:24.465Z,15.70
2018-08-25T20:24:53.980Z,15.70
2018-08-25T20:27:23.326Z,15.70
2018-08-25T20:29:52.698Z,15.60
2018-08-25T20:32:22.402Z,15.60
2018-08-25T20:34:51.927Z,15.50
2018-08-25T20:37:21.307Z,15.30
2018-08-25T20:39:50.697Z,15.20
2018-08-25T20:42:20.174Z,15.10
2018-08-25T20:44:49.692Z,15.00
2018-08-25T20:47:19.228Z,15.00
2018-08-25T20:49:48.717Z,15.00
2018-08-25T20:52:18.218Z,15.00
2018-08-25T20:54:47.546Z,15.00
2018-08-25T20:57:16.863Z,15.00
2018-08-25T20:59:46.222Z,15.00
2018-08-25T21:02:15.528Z,14.90
2018-08-25T21:04:44.880Z,14.90
2018-08-25T21:07:14.188Z,14.90
2018-08-25T21:09:43.715Z,14.80
2018-08-25T21:12:13.143Z,14.80
2018-08-25T21:14:42.492Z,14.70
2018-08-25T21:17:12.006Z,14.60
2018-08-25T21:19:41.501Z,14.50
2018-08-25T21:22:11.010Z,14.40
2018-08-25T21:24:40.366Z,14.30
2018-08-25T21:27:09.763Z,14.20
2018-08-25T21:29:39.250Z,14.10
2018-08-25T21:32:08.774Z,14.00
2018-08-25T21:34:38.247Z,14.00
2018-08-25T21:37:08.078Z,14.00
2018-08-25T21:39:37.475Z,14.00
2018-08-25T21:42:06.767Z,14.10
2018-08-25T21:44:36.103Z,14.10
2018-08-25T21:47:05.451Z,14.10
2018-08-25T21:49:35.010Z,14.10
2018-08-25T21:52:04.446Z,14.10
2018-08-25T21:54:33.831Z,14.10
2018-08-25T21:57:03.168Z,14.10
2018-08-25T21:59:32.552Z,14.20
2018-08-25T22:02:02.074Z,14.20
2018-08-25T22:04:31.494Z,14.30
2018-08-25T22:11:56.113Z,14.20
2018-08-25T22:14:25.487Z,14.20
2018-08-25T22:16:54.868Z,14.10
2018-08-25T22:19:24.335Z,14.10
2018-08-25T22:21:53.822Z,14.10
2018-08-25T22:24:23.150Z,14.10
2018-08-25T22:26:52.451Z,14.20
2018-08-25T22:29:21.755Z,14.30
2018-08-25T22:31:51.199Z,14.20
2018-08-25T22:34:20.690Z,14.10
2018-08-25T22:36:50.071Z,14.10
2018-08-25T22:39:19.575Z,13.90
2018-08-25T22:41:49.169Z,14.00
2018-08-25T22:44:19.006Z,14.00
2018-08-25T22:46:48.363Z,13.90
2018-08-25T22:49:17.728Z,13.80
2018-08-25T22:51:47.196Z,13.70
2018-08-25T22:59:11.438Z,13.80
2018-08-25T23:01:40.791Z,13.80
2018-08-25T23:04:10.086Z,13.90
2018-08-25T23:09:18.071Z,13.90
2018-08-25T23:11:47.551Z,13.80
2018-08-25T23:14:17.049Z,13.90
2018-08-25T23:16:46.538Z,13.90
2018-08-25T23:19:16.036Z,14.00
2018-08-25T23:21:45.397Z,13.90
2018-08-25T23:24:14.842Z,13.90
2018-08-25T23:26:44.332Z,13.90
2018-08-25T23:29:13.675Z,13.80
2018-08-25T23:31:43.026Z,13.80
2018-08-25T23:34:12.537Z,13.90
2018-08-25T23:36:41.850Z,14.00
2018-08-25T23:39:11.434Z,14.00
2018-08-25T23:41:40.732Z,14.10
2018-08-25T23:44:10.155Z,14.10
2018-08-25T23:48:40.711Z,14.20
2018-08-25T23:51:10.075Z,14.20
2018-08-25T23:53:39.505Z,14.30
2018-08-25T23:56:08.806Z,14.30
2018-08-25T23:58:38.355Z,14.30
